sensor_id;sensor_type;location;lat;lon;timestamp;pressure;altitude;pressure_sealevel;temperature;humidity
60049;BME280;66154;45.544;6.756;2024-03-23T00:55:00;87055.00;;;7.34;51.25
60049;BME280;66154;45.544;6.756;2024-03-23T01:00:00;87053.59;;;7.29;51.71
60049;BME280;66154;45.544;6.756;2024-03-23T01:05:01;87045.06;;;7.25;51.88
60049;BME280;66154;45.544;6.756;2024-03-23T01:10:01;87038.44;;;7.21;52.12
60049;BME280;66154;45.544;6.756;2024-03-23T01:15:02;87045.19;;;7.18;51.49
60049;BME280;66154;45.544;6.756;2024-03-23T01:20:03;87038.09;;;7.19;52.11
60049;BME280;66154;45.544;6.756;2024-03-23T01:25:04;87036.19;;;7.19;52.12
60049;BME280;66154;45.544;6.756;2024-03-23T01:30:05;87031.31;;;7.21;52.10
60049;BME280;66154;45.544;6.756;2024-03-23T01:35:06;87017.44;;;7.24;51.68
60049;BME280;66154;45.544;6.756;2024-03-23T01:40:07;87010.66;;;7.27;51.98
60049;BME280;66154;45.544;6.756;2024-03-23T01:45:09;87015.03;;;7.33;51.85
60049;BME280;66154;45.544;6.756;2024-03-23T01:50:13;87009.69;;;7.41;51.91
60049;BME280;66154;45.544;6.756;2024-03-23T01:55:13;87007.72;;;7.48;51.71
60049;BME280;66154;45.544;6.756;2024-03-23T02:00:14;86999.78;;;7.52;50.50
60049;BME280;66154;45.544;6.756;2024-03-23T02:05:15;86996.22;;;7.62;51.27
60049;BME280;66154;45.544;6.756;2024-03-23T02:10:15;86997.38;;;7.61;51.34
60049;BME280;66154;45.544;6.756;2024-03-23T02:15:16;86995.22;;;7.56;51.44
60049;BME280;66154;45.544;6.756;2024-03-23T02:20:16;86990.03;;;7.52;51.29
60049;BME280;66154;45.544;6.756;2024-03-23T02:25:17;86999.44;;;7.50;51.61
60049;BME280;66154;45.544;6.756;2024-03-23T02:30:17;86994.56;;;7.52;52.00
60049;BME280;66154;45.544;6.756;2024-03-23T02:35:18;86988.59;;;7.51;51.96
60049;BME280;66154;45.544;6.756;2024-03-23T02:40:19;86976.97;;;7.52;51.34
60049;BME280;66154;45.544;6.756;2024-03-23T02:45:20;86970.19;;;7.55;51.81
60049;BME280;66154;45.544;6.756;2024-03-23T02:50:21;86968.66;;;7.57;51.76
60049;BME280;66154;45.544;6.756;2024-03-23T02:55:21;86968.94;;;7.63;52.27
60049;BME280;66154;45.544;6.756;2024-03-23T03:00:22;86950.13;;;7.68;52.24
60049;BME280;66154;45.544;6.756;2024-03-23T03:05:23;86956.38;;;7.74;51.86
60049;BME280;66154;45.544;6.756;2024-03-23T03:10:23;86943.22;;;7.77;52.42
60049;BME280;66154;45.544;6.756;2024-03-23T03:15:24;86942.03;;;7.82;52.64
60049;BME280;66154;45.544;6.756;2024-03-23T03:20:24;86947.09;;;7.89;51.95
60049;BME280;66154;45.544;6.756;2024-03-23T03:25:25;86941.81;;;7.92;51.50
60049;BME280;66154;45.544;6.756;2024-03-23T03:30:25;86942.47;;;7.96;51.21
60049;BME280;66154;45.544;6.756;2024-03-23T03:35:26;86942.41;;;8.00;50.91
60049;BME280;66154;45.544;6.756;2024-03-23T03:40:26;86926.28;;;8.01;51.87
60049;BME280;66154;45.544;6.756;2024-03-23T03:45:27;86921.38;;;8.03;51.94
60049;BME280;66154;45.544;6.756;2024-03-23T03:50:27;86926.97;;;8.05;52.16
60049;BME280;66154;45.544;6.756;2024-03-23T03:55:28;86946.34;;;8.08;51.95
60049;BME280;66154;45.544;6.756;2024-03-23T04:00:28;86932.84;;;8.09;51.62
60049;BME280;66154;45.544;6.756;2024-03-23T04:05:29;86932.78;;;8.13;52.15
60049;BME280;66154;45.544;6.756;2024-03-23T04:10:30;86929.00;;;8.14;51.88
60049;BME280;66154;45.544;6.756;2024-03-23T04:15:30;86921.81;;;8.18;51.91
60049;BME280;66154;45.544;6.756;2024-03-23T04:20:31;86914.94;;;8.24;52.68
60049;BME280;66154;45.544;6.756;2024-03-23T04:25:32;86903.22;;;8.32;52.35
60049;BME280;66154;45.544;6.756;2024-03-23T04:30:32;86893.81;;;8.35;52.46
60049;BME280;66154;45.544;6.756;2024-03-23T04:35:33;86879.06;;;8.41;53.25
60049;BME280;66154;45.544;6.756;2024-03-23T04:40:33;86869.88;;;8.49;52.95
60049;BME280;66154;45.544;6.756;2024-03-23T04:45:34;86828.84;;;8.58;52.21
60049;BME280;66154;45.544;6.756;2024-03-23T04:50:34;86816.03;;;8.64;52.45
60049;BME280;66154;45.544;6.756;2024-03-23T04:55:35;86811.22;;;8.75;51.89
60049;BME280;66154;45.544;6.756;2024-03-23T05:00:35;86804.03;;;8.79;52.47
60049;BME280;66154;45.544;6.756;2024-03-23T05:05:36;86776.22;;;8.81;52.38
60049;BME280;66154;45.544;6.756;2024-03-23T05:10:36;86762.91;;;8.76;52.82
60049;BME280;66154;45.544;6.756;2024-03-23T05:15:37;86742.88;;;8.69;52.85
60049;BME280;66154;45.544;6.756;2024-03-23T05:20:38;86751.22;;;8.64;55.44
60049;BME280;66154;45.544;6.756;2024-03-23T05:25:39;86792.59;;;8.57;53.58
60049;BME280;66154;45.544;6.756;2024-03-23T05:30:39;86826.50;;;8.48;51.74
60049;BME280;66154;45.544;6.756;2024-03-23T05:35:40;86878.81;;;8.35;54.04
60049;BME280;66154;45.544;6.756;2024-03-23T05:40:40;86867.38;;;8.29;56.35
60049;BME280;66154;45.544;6.756;2024-03-23T05:45:41;86863.19;;;8.32;54.24
60049;BME280;66154;45.544;6.756;2024-03-23T05:50:42;86848.38;;;8.25;54.91
60049;BME280;66154;45.544;6.756;2024-03-23T05:55:43;86874.03;;;8.14;55.91
60049;BME280;66154;45.544;6.756;2024-03-23T06:00:44;86888.59;;;8.15;60.20
60049;BME280;66154;45.544;6.756;2024-03-23T06:05:44;86886.44;;;8.10;55.39
60049;BME280;66154;45.544;6.756;2024-03-23T06:10:48;86890.72;;;8.04;58.70
60049;BME280;66154;45.544;6.756;2024-03-23T06:15:50;86920.81;;;7.96;57.78
60049;BME280;66154;45.544;6.756;2024-03-23T06:20:51;86935.50;;;7.90;58.57
60049;BME280;66154;45.544;6.756;2024-03-23T06:25:51;86928.06;;;7.88;55.09
60049;BME280;66154;45.544;6.756;2024-03-23T06:30:52;86907.19;;;7.85;55.27
60049;BME280;66154;45.544;6.756;2024-03-23T06:35:52;86914.72;;;7.83;56.38
60049;BME280;66154;45.544;6.756;2024-03-23T06:40:53;86908.00;;;7.82;53.86
60049;BME280;66154;45.544;6.756;2024-03-23T06:45:54;86900.56;;;7.80;55.21
60049;BME280;66154;45.544;6.756;2024-03-23T06:50:57;86887.72;;;7.86;63.00
60049;BME280;66154;45.544;6.756;2024-03-23T06:55:58;86889.69;;;7.82;58.56
60049;BME280;66154;45.544;6.756;2024-03-23T07:00:59;86884.38;;;7.85;57.45
60049;BME280;66154;45.544;6.756;2024-03-23T07:05:59;86856.25;;;7.89;54.70
60049;BME280;66154;45.544;6.756;2024-03-23T07:11:00;86856.50;;;7.95;56.49
60049;BME280;66154;45.544;6.756;2024-03-23T07:16:01;86849.47;;;7.92;58.47
60049;BME280;66154;45.544;6.756;2024-03-23T07:21:01;86870.25;;;7.99;67.50
60049;BME280;66154;45.544;6.756;2024-03-23T07:26:03;86865.34;;;8.01;57.85
60049;BME280;66154;45.544;6.756;2024-03-23T07:31:11;86859.69;;;8.02;55.29
60049;BME280;66154;45.544;6.756;2024-03-23T07:36:13;86867.22;;;8.00;55.80
60049;BME280;66154;45.544;6.756;2024-03-23T07:41:16;86853.41;;;8.00;59.85
60049;BME280;66154;45.544;6.756;2024-03-23T07:46:20;86858.16;;;8.05;66.11
60049;BME280;66154;45.544;6.756;2024-03-23T07:51:22;86874.16;;;7.91;54.57
60049;BME280;66154;45.544;6.756;2024-03-23T07:56:23;86880.28;;;7.84;65.08
60049;BME280;66154;45.544;6.756;2024-03-23T08:01:23;86858.78;;;7.93;56.32
60049;BME280;66154;45.544;6.756;2024-03-23T08:06:24;86855.69;;;8.14;57.25
60049;BME280;66154;45.544;6.756;2024-03-23T08:11:29;86862.19;;;8.25;55.48
60049;BME280;66154;45.544;6.756;2024-03-23T08:16:31;86895.00;;;8.30;59.19
60049;BME280;66154;45.544;6.756;2024-03-23T08:21:31;86877.09;;;8.29;63.79
60049;BME280;66154;45.544;6.756;2024-03-23T08:26:32;86857.00;;;8.22;63.61
60049;BME280;66154;45.544;6.756;2024-03-23T08:31:33;86888.72;;;8.27;56.79
60049;BME280;66154;45.544;6.756;2024-03-23T08:36:33;86902.47;;;8.32;56.04
60049;BME280;66154;45.544;6.756;2024-03-23T08:41:34;86902.22;;;8.26;56.64
60049;BME280;66154;45.544;6.756;2024-03-23T08:46:34;86911.41;;;8.14;58.35
60049;BME280;66154;45.544;6.756;2024-03-23T08:51:35;86933.06;;;7.99;57.25
60049;BME280;66154;45.544;6.756;2024-03-23T08:56:35;86923.69;;;7.82;57.94
60049;BME280;66154;45.544;6.756;2024-03-23T09:01:36;86931.81;;;7.87;58.63
60049;BME280;66154;45.544;6.756;2024-03-23T09:06:36;86942.41;;;8.00;55.63
60049;BME280;66154;45.544;6.756;2024-03-23T09:11:37;86945.94;;;8.09;56.72
60049;BME280;66154;45.544;6.756;2024-03-23T09:16:37;86942.28;;;8.23;57.39
60049;BME280;66154;45.544;6.756;2024-03-23T09:21:38;86969.81;;;8.31;57.26
60049;BME280;66154;45.544;6.756;2024-03-23T09:26:38;86953.22;;;8.38;55.95
60049;BME280;66154;45.544;6.756;2024-03-23T09:31:39;86976.56;;;8.48;58.11
60049;BME280;66154;45.544;6.756;2024-03-23T09:36:41;86951.50;;;8.47;56.20
60049;BME280;66154;45.544;6.756;2024-03-23T09:41:41;86947.44;;;8.46;55.07
60049;BME280;66154;45.544;6.756;2024-03-23T09:46:42;86932.75;;;8.49;56.47
60049;BME280;66154;45.544;6.756;2024-03-23T09:51:42;86940.22;;;8.50;56.17
60049;BME280;66154;45.544;6.756;2024-03-23T09:56:43;86925.09;;;8.58;58.89
60049;BME280;66154;45.544;6.756;2024-03-23T10:01:43;86925.72;;;8.78;55.44
60049;BME280;66154;45.544;6.756;2024-03-23T10:06:44;86925.06;;;8.90;55.58
60049;BME280;66154;45.544;6.756;2024-03-23T10:11:46;86924.72;;;8.88;56.43
60049;BME280;66154;45.544;6.756;2024-03-23T10:16:49;86921.13;;;8.98;55.62
60049;BME280;66154;45.544;6.756;2024-03-23T10:21:53;86916.34;;;9.09;54.98
60049;BME280;66154;45.544;6.756;2024-03-23T10:26:57;86929.22;;;9.20;54.95
60049;BME280;66154;45.544;6.756;2024-03-23T10:32:11;86930.56;;;9.24;53.99
60049;BME280;66154;45.544;6.756;2024-03-23T10:37:11;86933.84;;;9.28;54.42
60049;BME280;66154;45.544;6.756;2024-03-23T10:42:13;86933.28;;;9.21;54.18
60049;BME280;66154;45.544;6.756;2024-03-23T10:47:15;86927.47;;;9.13;54.18
60049;BME280;66154;45.544;6.756;2024-03-23T10:52:16;86915.03;;;9.17;54.08
60049;BME280;66154;45.544;6.756;2024-03-23T10:57:22;86924.75;;;9.33;51.84
60049;BME280;66154;45.544;6.756;2024-03-23T11:02:25;86925.41;;;9.37;52.69
60049;BME280;66154;45.544;6.756;2024-03-23T11:12:31;86929.78;;;9.11;53.12
60049;BME280;66154;45.544;6.756;2024-03-23T11:17:33;86941.56;;;9.19;52.00
60049;BME280;66154;45.544;6.756;2024-03-23T11:22:46;86942.47;;;9.12;52.88
60049;BME280;66154;45.544;6.756;2024-03-23T11:27:52;86930.09;;;9.29;52.52
60049;BME280;66154;45.544;6.756;2024-03-23T11:32:57;86926.06;;;9.25;51.58
60049;BME280;66154;45.544;6.756;2024-03-23T11:43:13;86897.97;;;9.25;51.10
60049;BME280;66154;45.544;6.756;2024-03-23T11:48:16;86895.81;;;9.20;51.38
60049;BME280;66154;45.544;6.756;2024-03-23T11:53:22;86899.41;;;9.26;51.33
60049;BME280;66154;45.544;6.756;2024-03-23T11:58:24;86874.38;;;9.38;48.95
60049;BME280;66154;45.544;6.756;2024-03-23T12:03:26;86891.22;;;9.24;50.52
60049;BME280;66154;45.544;6.756;2024-03-23T12:13:28;86869.78;;;9.13;50.33
60049;BME280;66154;45.544;6.756;2024-03-23T12:18:29;86880.94;;;9.17;48.16
60049;BME280;66154;45.544;6.756;2024-03-23T12:23:30;86876.91;;;9.12;49.23
60049;BME280;66154;45.544;6.756;2024-03-23T12:28:32;86854.19;;;8.93;48.64
60049;BME280;66154;45.544;6.756;2024-03-23T12:33:33;86846.06;;;9.04;49.14
60049;BME280;66154;45.544;6.756;2024-03-23T12:38:33;86865.72;;;9.12;50.03
60049;BME280;66154;45.544;6.756;2024-03-23T12:43:34;86856.34;;;9.11;49.64
60049;BME280;66154;45.544;6.756;2024-03-23T12:48:36;86858.19;;;8.98;48.81
60049;BME280;66154;45.544;6.756;2024-03-23T12:53:36;86828.69;;;9.10;45.45
60049;BME280;66154;45.544;6.756;2024-03-23T12:58:37;86839.31;;;9.32;45.48
60049;BME280;66154;45.544;6.756;2024-03-23T13:03:37;86830.72;;;10.48;50.14
60049;BME280;66154;45.544;6.756;2024-03-23T13:08:38;86827.81;;;12.40;54.53
60049;BME280;66154;45.544;6.756;2024-03-23T13:13:39;86814.41;;;14.19;51.00
60049;BME280;66154;45.544;6.756;2024-03-23T13:18:40;86829.06;;;15.27;55.38
60049;BME280;66154;45.544;6.756;2024-03-23T13:23:41;86817.50;;;16.30;55.23
60049;BME280;66154;45.544;6.756;2024-03-23T13:28:42;86826.53;;;16.09;45.59
60049;BME280;66154;45.544;6.756;2024-03-23T13:33:43;86825.53;;;15.07;43.89
60049;BME280;66154;45.544;6.756;2024-03-23T13:38:44;86816.13;;;15.06;52.17
60049;BME280;66154;45.544;6.756;2024-03-23T13:43:44;86803.69;;;14.65;48.99
60049;BME280;66154;45.544;6.756;2024-03-23T13:48:45;86832.59;;;14.35;50.43
60049;BME280;66154;45.544;6.756;2024-03-23T13:53:45;86801.50;;;14.12;47.16
60049;BME280;66154;45.544;6.756;2024-03-23T13:58:46;86774.03;;;14.61;51.10
60049;BME280;66154;45.544;6.756;2024-03-23T14:03:47;86781.25;;;15.07;50.23
60049;BME280;66154;45.544;6.756;2024-03-23T14:08:49;86792.09;;;15.33;44.76
60049;BME280;66154;45.544;6.756;2024-03-23T14:13:50;86766.91;;;15.37;49.76
60049;BME280;66154;45.544;6.756;2024-03-23T14:18:51;86783.69;;;15.58;50.06
60049;BME280;66154;45.544;6.756;2024-03-23T14:23:52;86786.56;;;16.27;41.46
60049;BME280;66154;45.544;6.756;2024-03-23T14:28:53;86760.66;;;17.21;56.71
60049;BME280;66154;45.544;6.756;2024-03-23T14:33:54;86749.28;;;17.61;51.84
60049;BME280;66154;45.544;6.756;2024-03-23T14:38:54;86761.78;;;17.75;41.97
60049;BME280;66154;45.544;6.756;2024-03-23T14:43:55;86758.63;;;17.76;49.86
60049;BME280;66154;45.544;6.756;2024-03-23T14:48:57;86763.50;;;18.03;37.32
60049;BME280;66154;45.544;6.756;2024-03-23T14:53:58;86759.00;;;18.15;27.39
60049;BME280;66154;45.544;6.756;2024-03-23T14:58:58;86755.38;;;18.12;42.49
60049;BME280;66154;45.544;6.756;2024-03-23T15:04:00;86729.19;;;17.80;48.51
60049;BME280;66154;45.544;6.756;2024-03-23T15:09:00;86777.28;;;18.02;48.16
60049;BME280;66154;45.544;6.756;2024-03-23T15:14:01;86772.78;;;18.39;47.25
60049;BME280;66154;45.544;6.756;2024-03-23T15:19:01;86776.63;;;18.64;44.86
60049;BME280;66154;45.544;6.756;2024-03-23T15:24:02;86785.50;;;18.55;43.04
60049;BME280;66154;45.544;6.756;2024-03-23T15:29:03;86773.53;;;17.08;37.55
60049;BME280;66154;45.544;6.756;2024-03-23T15:34:10;86785.91;;;15.12;42.37
60049;BME280;66154;45.544;6.756;2024-03-23T15:39:11;86768.28;;;13.69;41.57
60049;BME280;66154;45.544;6.756;2024-03-23T15:44:14;86769.72;;;12.62;44.93
60049;BME280;66154;45.544;6.756;2024-03-23T15:49:14;86805.50;;;11.83;44.97
60049;BME280;66154;45.544;6.756;2024-03-23T15:54:15;86783.00;;;11.05;44.60
60049;BME280;66154;45.544;6.756;2024-03-23T15:59:15;86773.94;;;10.50;43.65
60049;BME280;66154;45.544;6.756;2024-03-23T16:04:16;86785.25;;;10.13;44.64
60049;BME280;66154;45.544;6.756;2024-03-23T16:09:16;86775.78;;;9.65;43.31
60049;BME280;66154;45.544;6.756;2024-03-23T16:14:17;86792.09;;;9.32;43.53
60049;BME280;66154;45.544;6.756;2024-03-23T16:19:18;86783.03;;;9.07;46.24
60049;BME280;66154;45.544;6.756;2024-03-23T16:24:18;86788.28;;;9.07;44.97
60049;BME280;66154;45.544;6.756;2024-03-23T16:29:19;86778.72;;;9.01;43.65
60049;BME280;66154;45.544;6.756;2024-03-23T16:34:19;86786.03;;;8.93;42.84
60049;BME280;66154;45.544;6.756;2024-03-23T16:39:20;86786.00;;;8.52;44.15
60049;BME280;66154;45.544;6.756;2024-03-23T16:44:20;86801.38;;;8.18;42.25
60049;BME280;66154;45.544;6.756;2024-03-23T16:49:21;86794.00;;;7.97;45.18
60049;BME280;66154;45.544;6.756;2024-03-23T16:54:22;86787.06;;;7.90;45.87
60049;BME280;66154;45.544;6.756;2024-03-23T16:59:22;86790.00;;;7.76;45.41
60049;BME280;66154;45.544;6.756;2024-03-23T17:04:23;86795.06;;;7.67;45.42
60049;BME280;66154;45.544;6.756;2024-03-23T17:09:24;86789.72;;;7.55;43.35
60049;BME280;66154;45.544;6.756;2024-03-23T17:14:26;86791.84;;;7.44;44.67
60049;BME280;66154;45.544;6.756;2024-03-23T17:19:26;86792.63;;;7.24;44.44
60049;BME280;66154;45.544;6.756;2024-03-23T17:24:27;86793.38;;;7.05;43.83
60049;BME280;66154;45.544;6.756;2024-03-23T17:29:28;86800.41;;;6.89;43.44
60049;BME280;66154;45.544;6.756;2024-03-23T17:34:29;86802.16;;;6.76;45.02
60049;BME280;66154;45.544;6.756;2024-03-23T17:39:32;86801.88;;;6.70;44.94
60049;BME280;66154;45.544;6.756;2024-03-23T17:44:33;86810.44;;;6.51;41.43
60049;BME280;66154;45.544;6.756;2024-03-23T17:49:33;86818.16;;;6.35;44.26
60049;BME280;66154;45.544;6.756;2024-03-23T17:54:34;86823.34;;;6.15;44.62
60049;BME280;66154;45.544;6.756;2024-03-23T17:59:34;86812.28;;;6.08;44.63
60049;BME280;66154;45.544;6.756;2024-03-23T18:04:35;86813.53;;;6.00;45.03
60049;BME280;66154;45.544;6.756;2024-03-23T18:09:35;86828.66;;;5.85;44.67
60049;BME280;66154;45.544;6.756;2024-03-23T18:14:36;86839.72;;;5.66;44.17
60049;BME280;66154;45.544;6.756;2024-03-23T18:19:37;86834.66;;;5.55;45.57
60049;BME280;66154;45.544;6.756;2024-03-23T18:24:37;86845.59;;;5.47;43.81
60049;BME280;66154;45.544;6.756;2024-03-23T18:29:38;86830.41;;;5.38;45.36
60049;BME280;66154;45.544;6.756;2024-03-23T18:34:38;86837.53;;;5.34;45.28
60049;BME280;66154;45.544;6.756;2024-03-23T18:39:39;86842.88;;;5.27;44.77
60049;BME280;66154;45.544;6.756;2024-03-23T18:44:41;86860.81;;;5.22;44.48
60049;BME280;66154;45.544;6.756;2024-03-23T18:49:41;86852.59;;;5.23;44.86
60049;BME280;66154;45.544;6.756;2024-03-23T18:54:42;86862.66;;;5.21;45.40
60049;BME280;66154;45.544;6.756;2024-03-23T18:59:42;86856.34;;;5.19;45.37
60049;BME280;66154;45.544;6.756;2024-03-23T19:04:43;86863.50;;;5.15;45.44
60049;BME280;66154;45.544;6.756;2024-03-23T19:09:43;86857.25;;;5.09;45.18
60049;BME280;66154;45.544;6.756;2024-03-23T19:14:44;86857.38;;;4.98;45.19
60049;BME280;66154;45.544;6.756;2024-03-23T19:19:45;86853.31;;;4.94;45.16
60049;BME280;66154;45.544;6.756;2024-03-23T19:24:45;86864.91;;;4.89;45.57
60049;BME280;66154;45.544;6.756;2024-03-23T19:29:46;86845.63;;;4.83;45.10
60049;BME280;66154;45.544;6.756;2024-03-23T19:34:46;86842.97;;;4.87;45.49
60049;BME280;66154;45.544;6.756;2024-03-23T19:39:47;86840.41;;;4.83;44.78
60049;BME280;66154;45.544;6.756;2024-03-23T19:44:47;86836.38;;;4.79;45.73
60049;BME280;66154;45.544;6.756;2024-03-23T19:49:48;86829.34;;;4.76;44.80
60049;BME280;66154;45.544;6.756;2024-03-23T19:54:48;86826.78;;;4.72;45.41
60049;BME280;66154;45.544;6.756;2024-03-23T19:59:49;86832.34;;;4.74;45.32
60049;BME280;66154;45.544;6.756;2024-03-23T20:04:50;86831.91;;;4.79;45.57
60049;BME280;66154;45.544;6.756;2024-03-23T20:09:50;86824.09;;;4.79;46.14
60049;BME280;66154;45.544;6.756;2024-03-23T20:14:51;86826.34;;;4.77;44.96
60049;BME280;66154;45.544;6.756;2024-03-23T20:19:52;86821.50;;;4.79;46.64
60049;BME280;66154;45.544;6.756;2024-03-23T20:24:53;86818.28;;;4.68;45.04
60049;BME280;66154;45.544;6.756;2024-03-23T20:29:53;86815.81;;;4.54;45.49
60049;BME280;66154;45.544;6.756;2024-03-23T20:34:54;86812.09;;;4.55;44.36
60049;BME280;66154;45.544;6.756;2024-03-23T20:39:54;86811.41;;;4.51;45.58
60049;BME280;66154;45.544;6.756;2024-03-23T20:44:55;86813.28;;;4.50;45.47
60049;BME280;66154;45.544;6.756;2024-03-23T20:49:58;86818.81;;;4.52;45.79
60049;BME280;66154;45.544;6.756;2024-03-23T20:54:58;86805.06;;;4.52;46.54
60049;BME280;66154;45.544;6.756;2024-03-23T21:00:00;86805.84;;;4.49;45.89
60049;BME280;66154;45.544;6.756;2024-03-23T21:05:00;86809.66;;;4.41;46.34
60049;BME280;66154;45.544;6.756;2024-03-23T21:10:01;86805.63;;;4.33;46.32
60049;BME280;66154;45.544;6.756;2024-03-23T21:15:02;86806.78;;;4.32;46.62
60049;BME280;66154;45.544;6.756;2024-03-23T21:20:03;86803.84;;;4.26;46.73
60049;BME280;66154;45.544;6.756;2024-03-23T21:25:05;86800.91;;;4.21;47.15
60049;BME280;66154;45.544;6.756;2024-03-23T21:30:06;86800.63;;;4.15;47.06
60049;BME280;66154;45.544;6.756;2024-03-23T21:35:07;86796.63;;;4.04;47.29
60049;BME280;66154;45.544;6.756;2024-03-23T21:40:08;86798.50;;;4.03;47.09
60049;BME280;66154;45.544;6.756;2024-03-23T21:45:11;86803.38;;;3.98;47.50
60049;BME280;66154;45.544;6.756;2024-03-23T21:50:12;86811.19;;;3.98;47.69
60049;BME280;66154;45.544;6.756;2024-03-23T21:55:12;86806.75;;;3.95;47.50
60049;BME280;66154;45.544;6.756;2024-03-23T22:00:13;86796.75;;;3.93;47.45
60049;BME280;66154;45.544;6.756;2024-03-23T22:05:14;86795.66;;;3.91;47.61
60049;BME280;66154;45.544;6.756;2024-03-23T22:10:14;86778.19;;;3.88;47.42
60049;BME280;66154;45.544;6.756;2024-03-23T22:15:15;86792.69;;;3.89;47.57
60049;BME280;66154;45.544;6.756;2024-03-23T22:20:16;86777.47;;;3.87;47.90
60049;BME280;66154;45.544;6.756;2024-03-23T22:25:16;86767.47;;;3.82;47.37
60049;BME280;66154;45.544;6.756;2024-03-23T22:30:18;86763.47;;;3.78;47.58
60049;BME280;66154;45.544;6.756;2024-03-23T22:35:18;86769.03;;;3.76;47.56
60049;BME280;66154;45.544;6.756;2024-03-23T22:40:19;86763.91;;;3.69;47.65
60049;BME280;66154;45.544;6.756;2024-03-23T22:45:20;86761.31;;;3.65;47.54
60049;BME280;66154;45.544;6.756;2024-03-23T22:50:20;86760.22;;;3.63;47.31
60049;BME280;66154;45.544;6.756;2024-03-23T22:55:21;86751.00;;;3.58;48.38
60049;BME280;66154;45.544;6.756;2024-03-23T23:00:21;86751.00;;;3.58;47.84
60049;BME280;66154;45.544;6.756;2024-03-23T23:05:22;86746.88;;;3.61;47.20
60049;BME280;66154;45.544;6.756;2024-03-23T23:10:23;86749.47;;;3.61;48.08
60049;BME280;66154;45.544;6.756;2024-03-23T23:15:23;86739.91;;;3.54;48.31
60049;BME280;66154;45.544;6.756;2024-03-23T23:20:24;86747.03;;;3.43;48.41
60049;BME280;66154;45.544;6.756;2024-03-23T23:25:24;86730.41;;;3.37;48.69
60049;BME280;66154;45.544;6.756;2024-03-23T23:30:25;86726.63;;;3.42;48.88
60049;BME280;66154;45.544;6.756;2024-03-23T23:35:25;86719.97;;;3.41;48.17
60049;BME280;66154;45.544;6.756;2024-03-23T23:40:26;86722.25;;;3.35;49.91
60049;BME280;66154;45.544;6.756;2024-03-23T23:45:27;86719.31;;;3.30;48.96
60049;BME280;66154;45.544;6.756;2024-03-23T23:50:27;86713.41;;;3.26;49.93
60049;BME280;66154;45.544;6.756;2024-03-23T23:55:28;86706.00;;;3.24;49.17
